createdAt,value
2022-08-17T00:00:43.193Z,27.91
2022-08-17T00:01:15.664Z,27.90
2022-08-17T00:01:51.701Z,27.91
2022-08-17T00:02:26.228Z,27.90
2022-08-17T00:02:58.502Z,27.90
2022-08-17T00:03:30.291Z,27.90
2022-08-17T00:04:01.741Z,27.90
2022-08-17T00:04:33.165Z,27.89
2022-08-17T00:05:04.601Z,27.89
2022-08-17T00:05:36.042Z,27.88
2022-08-17T00:06:07.466Z,27.88
2022-08-17T00:06:38.898Z,27.87
2022-08-17T00:07:10.375Z,27.87
2022-08-17T00:07:41.992Z,27.87
2022-08-17T00:08:13.444Z,27.87
2022-08-17T00:08:44.893Z,27.86
2022-08-17T00:09:18.677Z,27.86
2022-08-17T00:09:50.733Z,27.85
2022-08-17T00:10:22.164Z,27.87
2022-08-17T00:10:53.595Z,27.85
2022-08-17T00:11:25.029Z,27.84
2022-08-17T00:12:41.605Z,27.84
2022-08-17T00:12:47.893Z,27.83
2022-08-17T00:13:19.320Z,27.83
2022-08-17T00:13:50.744Z,27.82
2022-08-17T00:14:27.360Z,27.83
2022-08-17T00:14:58.871Z,27.82
2022-08-17T00:15:30.314Z,27.82
2022-08-17T00:16:01.756Z,27.81
2022-08-17T00:16:55.871Z,27.80
2022-08-17T00:17:24.600Z,27.80
2022-08-17T00:17:56.071Z,27.80
2022-08-17T00:18:57.427Z,27.79
2022-08-17T00:19:18.917Z,27.78
2022-08-17T00:19:50.346Z,27.79
2022-08-17T00:20:30.387Z,27.79
2022-08-17T00:21:10.444Z,27.78
2022-08-17T00:22:16.798Z,27.77
2022-08-17T00:22:36.450Z,27.76
2022-08-17T00:23:08.378Z,27.76
2022-08-17T00:23:39.808Z,27.76
2022-08-17T00:24:19.225Z,27.76
2022-08-17T00:24:50.690Z,27.76
2022-08-17T00:25:22.217Z,27.75
2022-08-17T00:25:53.661Z,27.74
2022-08-17T00:26:43.489Z,27.72
2022-08-17T00:27:16.583Z,27.72
2022-08-17T00:27:48.011Z,27.72
2022-08-17T00:28:19.695Z,27.73
2022-08-17T00:28:52.388Z,27.72
2022-08-17T00:29:23.808Z,27.71
2022-08-17T00:29:55.242Z,27.70
2022-08-17T00:30:26.671Z,27.71
2022-08-17T00:30:58.106Z,27.70
2022-08-17T00:31:29.537Z,27.69
2022-08-17T00:32:00.960Z,27.69
2022-08-17T00:33:14.482Z,27.67
2022-08-17T00:33:43.877Z,27.67
2022-08-17T00:34:15.321Z,27.68
2022-08-17T00:34:46.761Z,27.68
2022-08-17T00:35:18.205Z,27.66
2022-08-17T00:35:49.648Z,27.66
2022-08-17T00:36:21.085Z,27.67
2022-08-17T00:36:52.516Z,27.65
2022-08-17T00:37:23.940Z,27.65
2022-08-17T00:37:55.387Z,27.65
2022-08-17T00:38:26.825Z,27.65
2022-08-17T00:38:58.328Z,27.63
2022-08-17T00:39:29.982Z,27.64
2022-08-17T00:40:01.512Z,27.63
2022-08-17T00:40:40.753Z,27.63
2022-08-17T00:41:16.436Z,27.62
2022-08-17T00:41:47.857Z,27.62
2022-08-17T00:42:19.290Z,27.62
2022-08-17T00:42:50.762Z,27.61
2022-08-17T00:43:22.265Z,27.61
2022-08-17T00:43:53.696Z,27.60
2022-08-17T00:44:25.161Z,27.60
2022-08-17T00:45:01.824Z,27.60
2022-08-17T00:45:33.258Z,27.59
2022-08-17T00:46:04.694Z,27.59
2022-08-17T00:46:36.133Z,27.59
2022-08-17T00:47:07.558Z,27.58
2022-08-17T00:47:38.996Z,27.58
2022-08-17T00:48:28.957Z,27.57
2022-08-17T00:49:01.741Z,27.56
2022-08-17T00:49:33.206Z,27.56
2022-08-17T00:50:04.640Z,27.56
2022-08-17T00:50:36.078Z,27.54
2022-08-17T00:51:07.509Z,27.55
2022-08-17T00:51:38.941Z,27.54
2022-08-17T00:52:11.718Z,27.55
2022-08-17T00:52:43.533Z,27.55
2022-08-17T00:53:14.965Z,27.54
2022-08-17T00:53:46.399Z,27.54
2022-08-17T00:54:17.853Z,27.53
2022-08-17T00:54:49.280Z,27.53
2022-08-17T00:55:20.709Z,27.53
2022-08-17T00:55:52.146Z,27.53
2022-08-17T00:56:24.536Z,27.52
2022-08-17T00:56:55.966Z,27.49
2022-08-17T00:57:27.397Z,27.51
2022-08-17T00:57:58.817Z,27.49
2022-08-17T00:58:36.235Z,27.49
2022-08-17T00:59:08.204Z,27.49
2022-08-17T00:59:39.725Z,27.49
2022-08-17T01:00:11.158Z,27.48
2022-08-17T01:00:42.616Z,27.48
2022-08-17T01:01:21.206Z,27.48
2022-08-17T01:01:53.307Z,27.47
2022-08-17T01:02:24.734Z,27.47
2022-08-17T01:02:56.267Z,27.47
2022-08-17T01:03:27.815Z,27.47
2022-08-17T01:04:00.025Z,27.47
2022-08-17T01:04:31.780Z,27.46
2022-08-17T01:05:03.212Z,27.46
2022-08-17T01:05:34.635Z,27.46
2022-08-17T01:06:06.068Z,27.45
2022-08-17T01:06:37.595Z,27.45
2022-08-17T01:07:09.112Z,27.44
2022-08-17T01:07:40.541Z,27.44
2022-08-17T01:08:11.978Z,27.44
2022-08-17T01:08:43.404Z,27.43
2022-08-17T01:09:14.839Z,27.42
2022-08-17T01:09:46.351Z,27.43
2022-08-17T01:11:00.038Z,27.42
2022-08-17T01:11:09.188Z,27.40
2022-08-17T01:11:40.630Z,27.41
2022-08-17T01:12:12.070Z,27.40
2022-08-17T01:12:43.509Z,27.39
2022-08-17T01:13:14.941Z,27.40
2022-08-17T01:13:46.377Z,27.39
2022-08-17T01:14:17.812Z,27.38
2022-08-17T01:14:49.345Z,27.38
2022-08-17T01:15:20.767Z,27.38
2022-08-17T01:15:52.200Z,27.37
2022-08-17T01:16:23.623Z,27.37
2022-08-17T01:16:55.066Z,27.36
2022-08-17T01:17:26.504Z,27.36
2022-08-17T01:17:57.938Z,27.35
2022-08-17T01:18:29.359Z,27.36
2022-08-17T01:19:00.796Z,27.36
2022-08-17T01:19:32.232Z,27.35
2022-08-17T01:20:03.707Z,27.36
2022-08-17T01:20:47.800Z,27.34
2022-08-17T01:21:19.844Z,27.33
2022-08-17T01:21:51.267Z,27.34
2022-08-17T01:22:22.701Z,27.34
2022-08-17T01:22:54.137Z,27.33
2022-08-17T01:24:14.559Z,27.32
2022-08-17T01:24:45.988Z,27.31
2022-08-17T01:25:17.470Z,27.31
2022-08-17T01:25:48.906Z,27.31
2022-08-17T01:26:20.654Z,27.31
2022-08-17T01:26:52.090Z,27.30
2022-08-17T01:27:23.594Z,27.29
2022-08-17T01:27:55.577Z,27.28
2022-08-17T01:28:53.095Z,27.29
2022-08-17T01:29:18.419Z,27.29
2022-08-17T01:29:49.849Z,27.28
2022-08-17T01:30:57.791Z,27.28
2022-08-17T01:31:12.728Z,27.27
2022-08-17T01:31:44.165Z,27.26
2022-08-17T01:32:15.589Z,27.28
2022-08-17T01:32:47.021Z,27.27
2022-08-17T01:33:18.448Z,27.26
2022-08-17T01:33:49.881Z,27.26
2022-08-17T01:34:21.312Z,27.26
2022-08-17T01:34:52.741Z,27.25
2022-08-17T01:35:24.208Z,27.26
2022-08-17T01:35:55.632Z,27.25
2022-08-17T01:36:27.061Z,27.24
2022-08-17T01:36:58.492Z,27.25
2022-08-17T01:37:29.921Z,27.24
2022-08-17T01:38:01.354Z,27.24
2022-08-17T01:38:32.789Z,27.23
2022-08-17T01:39:04.212Z,27.21
2022-08-17T01:39:35.683Z,27.22
2022-08-17T01:40:07.255Z,27.22
2022-08-17T01:40:38.773Z,27.22
2022-08-17T01:41:10.305Z,27.21
2022-08-17T01:41:41.737Z,27.21
2022-08-17T01:42:13.164Z,27.21
2022-08-17T01:42:45.482Z,27.20
2022-08-17T01:43:16.976Z,27.20
2022-08-17T01:43:48.414Z,27.19
2022-08-17T01:44:19.851Z,27.19
2022-08-17T01:44:51.286Z,27.19
2022-08-17T01:45:22.717Z,27.18
2022-08-17T01:46:02.472Z,27.19
2022-08-17T01:46:35.144Z,27.17
2022-08-17T01:47:06.576Z,27.18
2022-08-17T01:47:38.013Z,27.17
2022-08-17T01:48:09.452Z,27.17
2022-08-17T01:48:40.914Z,27.17
2022-08-17T01:49:12.345Z,27.16
2022-08-17T01:49:43.786Z,27.16
2022-08-17T01:50:15.217Z,27.17
2022-08-17T01:50:46.703Z,27.15
2022-08-17T01:51:18.163Z,27.16
2022-08-17T01:51:49.595Z,27.16
2022-08-17T01:52:21.033Z,27.15
2022-08-17T01:52:52.524Z,27.15
2022-08-17T01:53:23.957Z,27.15
2022-08-17T01:53:55.398Z,27.14
2022-08-17T01:54:26.830Z,27.14
2022-08-17T01:54:58.265Z,27.13
2022-08-17T01:55:29.693Z,27.12
2022-08-17T01:56:01.178Z,27.12
2022-08-17T01:56:32.609Z,27.12
2022-08-17T01:57:04.044Z,27.11
2022-08-17T01:57:35.476Z,27.11
2022-08-17T01:58:06.908Z,27.11
2022-08-17T01:58:38.333Z,27.10
2022-08-17T01:59:09.775Z,27.11
2022-08-17T01:59:41.211Z,27.09
2022-08-17T02:00:12.635Z,27.10
2022-08-17T02:00:46.622Z,27.09
2022-08-17T02:01:31.361Z,27.08
2022-08-17T02:02:02.824Z,27.07
2022-08-17T02:02:34.263Z,27.08
2022-08-17T02:03:05.694Z,27.08
2022-08-17T02:03:37.119Z,27.08
2022-08-17T02:04:08.568Z,27.08
2022-08-17T02:04:39.990Z,27.07
2022-08-17T02:05:11.425Z,27.06
2022-08-17T02:05:44.371Z,27.06
2022-08-17T02:06:27.033Z,27.06
2022-08-17T02:06:59.744Z,27.04
2022-08-17T02:07:31.924Z,27.03
2022-08-17T02:08:38.998Z,27.03
2022-08-17T02:09:14.708Z,27.03
2022-08-17T02:09:51.164Z,27.03
2022-08-17T02:10:24.264Z,27.03
2022-08-17T02:11:05.212Z,27.03
2022-08-17T02:11:42.941Z,27.03
2022-08-17T02:12:37.762Z,27.02
2022-08-17T02:13:05.772Z,27.02
2022-08-17T02:13:37.206Z,27.01
2022-08-17T02:14:08.651Z,27.02
2022-08-17T02:14:40.086Z,27.01
2022-08-17T02:15:11.514Z,27.00
2022-08-17T02:15:42.954Z,27.00
2022-08-17T02:16:14.383Z,27.00
2022-08-17T02:16:45.808Z,27.00
2022-08-17T02:17:17.239Z,27.00
2022-08-17T02:17:48.669Z,27.00
2022-08-17T02:18:26.308Z,26.98
2022-08-17T02:18:57.736Z,26.99
2022-08-17T02:19:29.264Z,26.98
2022-08-17T02:20:00.688Z,26.99
2022-08-17T02:20:41.247Z,26.97
2022-08-17T02:21:14.133Z,26.96
2022-08-17T02:21:45.578Z,26.96
2022-08-17T02:22:17.029Z,26.96
2022-08-17T02:22:48.654Z,26.97
2022-08-17T02:23:20.351Z,26.96
2022-08-17T02:23:51.781Z,26.96
2022-08-17T02:24:58.654Z,26.95
2022-08-17T02:25:14.673Z,26.95
2022-08-17T02:25:46.109Z,26.95
2022-08-17T02:26:25.607Z,26.94
2022-08-17T02:26:57.424Z,26.93
2022-08-17T02:27:28.849Z,26.94
2022-08-17T02:28:00.292Z,26.93
2022-08-17T02:28:31.717Z,26.93
2022-08-17T02:29:03.149Z,26.92
2022-08-17T02:29:34.668Z,26.92
2022-08-17T02:30:06.105Z,26.91
2022-08-17T02:31:00.970Z,26.93
2022-08-17T02:31:34.388Z,26.91
2022-08-17T02:32:05.824Z,26.91
2022-08-17T02:32:37.254Z,26.91
2022-08-17T02:33:09.380Z,26.90
2022-08-17T02:33:42.765Z,26.90
2022-08-17T02:34:15.057Z,26.90
2022-08-17T02:34:46.570Z,26.89
2022-08-17T02:35:19.385Z,26.89
2022-08-17T02:35:53.622Z,26.88
2022-08-17T02:36:27.445Z,26.88
2022-08-17T02:36:59.042Z,26.87
2022-08-17T02:37:30.474Z,26.88
2022-08-17T02:38:01.979Z,26.87
2022-08-17T02:38:33.403Z,26.87
2022-08-17T02:39:04.827Z,26.87
2022-08-17T02:39:36.319Z,26.87
2022-08-17T02:40:07.817Z,26.85
2022-08-17T02:40:39.336Z,26.84
2022-08-17T02:41:10.852Z,26.83
2022-08-17T02:41:42.280Z,26.84
2022-08-17T02:42:13.708Z,26.84
2022-08-17T02:42:45.140Z,26.83
2022-08-17T02:43:16.582Z,26.83
2022-08-17T02:43:48.016Z,26.83
2022-08-17T02:44:38.858Z,26.82
2022-08-17T02:45:10.863Z,26.82
2022-08-17T02:45:42.322Z,26.82
2022-08-17T02:46:13.749Z,26.81
2022-08-17T02:46:45.182Z,26.82
2022-08-17T02:47:16.612Z,26.82
2022-08-17T02:47:48.036Z,26.81
2022-08-17T02:48:30.521Z,26.81
2022-08-17T02:49:03.328Z,26.80
2022-08-17T02:49:34.752Z,26.79
2022-08-17T02:50:06.182Z,26.80
2022-08-17T02:50:37.664Z,26.78
2022-08-17T02:51:09.188Z,26.79
2022-08-17T02:51:40.614Z,26.79
2022-08-17T02:52:12.046Z,26.79
2022-08-17T02:52:44.189Z,26.79
2022-08-17T02:53:18.876Z,26.77
2022-08-17T02:53:50.306Z,26.78
2022-08-17T02:54:39.888Z,26.77
2022-08-17T02:55:13.154Z,26.77
2022-08-17T02:55:44.589Z,26.76
2022-08-17T02:56:16.092Z,26.75
2022-08-17T02:56:47.529Z,26.76
2022-08-17T02:57:18.957Z,26.76
2022-08-17T02:57:50.388Z,26.75
2022-08-17T02:58:34.765Z,26.75
2022-08-17T02:59:07.320Z,26.74
2022-08-17T02:59:38.753Z,26.73
2022-08-17T03:00:10.189Z,26.73
2022-08-17T03:00:41.622Z,26.72
2022-08-17T03:01:13.068Z,26.73
2022-08-17T03:01:44.615Z,26.72
2022-08-17T03:02:16.074Z,26.72
2022-08-17T03:02:47.511Z,26.72
2022-08-17T03:03:18.941Z,26.72
2022-08-17T03:03:50.377Z,26.71
2022-08-17T03:04:21.807Z,26.71
2022-08-17T03:04:53.237Z,26.70
2022-08-17T03:05:24.661Z,26.69
2022-08-17T03:05:56.088Z,26.69
2022-08-17T03:06:27.511Z,26.69
2022-08-17T03:06:59.061Z,26.68
2022-08-17T03:07:30.487Z,26.67
2022-08-17T03:08:01.918Z,26.67
2022-08-17T03:08:33.366Z,26.68
2022-08-17T03:09:04.802Z,26.67
2022-08-17T03:09:36.249Z,26.66
2022-08-17T03:10:07.689Z,26.67
2022-08-17T03:10:39.129Z,26.66
2022-08-17T03:11:10.571Z,26.66
2022-08-17T03:11:42.014Z,26.66
2022-08-17T03:12:13.527Z,26.66
2022-08-17T03:12:44.984Z,26.65
2022-08-17T03:13:16.418Z,26.65
2022-08-17T03:13:47.861Z,26.64
2022-08-17T03:14:19.284Z,26.65
2022-08-17T03:14:57.712Z,26.64
2022-08-17T03:15:29.144Z,26.64
2022-08-17T03:16:00.579Z,26.64
2022-08-17T03:16:32.016Z,26.63
2022-08-17T03:17:04.897Z,26.63
2022-08-17T03:17:36.389Z,26.63
2022-08-17T03:18:07.822Z,26.62
2022-08-17T03:18:50.285Z,26.62
2022-08-17T03:19:21.718Z,26.62
2022-08-17T03:19:53.153Z,26.63
2022-08-17T03:20:24.593Z,26.62
2022-08-17T03:20:56.022Z,26.62
2022-08-17T03:21:27.459Z,26.62
2022-08-17T03:21:58.888Z,26.61
2022-08-17T03:22:36.556Z,26.61
2022-08-17T03:23:23.993Z,26.61
2022-08-17T03:23:55.969Z,26.60
2022-08-17T03:24:28.733Z,26.59
2022-08-17T03:25:00.424Z,26.59
2022-08-17T03:25:32.301Z,26.59
2022-08-17T03:26:05.881Z,26.59
2022-08-17T03:26:43.676Z,26.59
2022-08-17T03:27:15.109Z,26.59
2022-08-17T03:27:48.234Z,26.58
2022-08-17T03:28:22.946Z,26.59
2022-08-17T03:28:54.385Z,26.58
2022-08-17T03:29:25.819Z,26.57
2022-08-17T03:29:57.261Z,26.58
2022-08-17T03:30:28.702Z,26.58
2022-08-17T03:31:00.139Z,26.57
2022-08-17T03:31:31.667Z,26.56
2022-08-17T03:32:04.097Z,26.56
2022-08-17T03:32:35.543Z,26.56
2022-08-17T03:33:06.974Z,26.56
2022-08-17T03:33:38.441Z,26.56
2022-08-17T03:34:09.873Z,26.55
2022-08-17T03:34:41.310Z,26.55
2022-08-17T03:35:12.749Z,26.54
2022-08-17T03:35:44.355Z,26.54
2022-08-17T03:36:15.789Z,26.54
2022-08-17T03:36:47.217Z,26.54
2022-08-17T03:37:18.650Z,26.54
2022-08-17T03:37:52.410Z,26.52
2022-08-17T03:38:39.044Z,26.53
2022-08-17T03:39:10.912Z,26.52
2022-08-17T03:39:43.586Z,26.53
2022-08-17T03:40:15.126Z,26.51
2022-08-17T03:41:06.249Z,26.51
2022-08-17T03:41:37.676Z,26.52
2022-08-17T03:42:09.099Z,26.51
2022-08-17T03:43:00.505Z,26.49
2022-08-17T03:43:31.944Z,26.50
2022-08-17T03:44:03.391Z,26.50
2022-08-17T03:44:34.825Z,26.50
2022-08-17T03:45:06.252Z,26.50
2022-08-17T03:45:37.680Z,26.49
2022-08-17T03:46:11.012Z,26.50
2022-08-17T03:46:58.933Z,26.49
2022-08-17T03:47:30.361Z,26.49
2022-08-17T03:48:01.793Z,26.48
2022-08-17T03:48:33.233Z,26.48
2022-08-17T03:49:04.740Z,26.48
2022-08-17T03:49:36.178Z,26.48
2022-08-17T03:50:07.664Z,26.46
2022-08-17T03:50:42.012Z,26.46
2022-08-17T03:51:14.867Z,26.46
2022-08-17T03:51:46.349Z,26.46
2022-08-17T03:52:17.783Z,26.46
2022-08-17T03:52:51.920Z,26.45
2022-08-17T03:53:24.178Z,26.44
2022-08-17T03:53:55.617Z,26.44
2022-08-17T03:54:27.057Z,26.44
2022-08-17T03:54:58.485Z,26.44
2022-08-17T03:55:36.091Z,26.44
2022-08-17T03:56:07.884Z,26.43
2022-08-17T03:56:39.314Z,26.44
2022-08-17T03:57:10.761Z,26.44
2022-08-17T03:57:42.193Z,26.44
2022-08-17T03:58:13.620Z,26.43
2022-08-17T03:58:45.057Z,26.43
2022-08-17T03:59:21.212Z,26.42
2022-08-17T03:59:54.017Z,26.40
2022-08-17T04:00:25.448Z,26.41
2022-08-17T04:00:56.880Z,26.40
2022-08-17T04:01:28.341Z,26.40
2022-08-17T04:01:59.829Z,26.39
2022-08-17T04:02:31.255Z,26.40
2022-08-17T04:03:02.693Z,26.38
2022-08-17T04:03:34.131Z,26.38
2022-08-17T04:04:05.653Z,26.38
2022-08-17T04:04:37.088Z,26.38
2022-08-17T04:05:08.516Z,26.38
2022-08-17T04:05:39.955Z,26.36
2022-08-17T04:06:11.424Z,26.36
2022-08-17T04:06:42.858Z,26.37
2022-08-17T04:07:14.291Z,26.36
2022-08-17T04:07:45.731Z,26.36
2022-08-17T04:08:17.189Z,26.36
2022-08-17T04:08:48.620Z,26.36
2022-08-17T04:09:20.129Z,26.35
2022-08-17T04:09:51.565Z,26.34
2022-08-17T04:10:26.405Z,26.34
2022-08-17T04:10:57.983Z,26.34
2022-08-17T04:11:29.413Z,26.34
2022-08-17T04:12:04.605Z,26.34
2022-08-17T04:12:36.509Z,26.34
2022-08-17T04:13:07.942Z,26.34
2022-08-17T04:13:39.374Z,26.34
2022-08-17T04:14:10.819Z,26.34
2022-08-17T04:14:53.764Z,26.34
2022-08-17T04:15:25.759Z,26.34
2022-08-17T04:15:57.191Z,26.32
2022-08-17T04:16:28.768Z,26.32
2022-08-17T04:17:00.199Z,26.31
2022-08-17T04:17:31.632Z,26.32
2022-08-17T04:18:03.068Z,26.32
2022-08-17T04:18:34.496Z,26.32
2022-08-17T04:19:05.925Z,26.31
2022-08-17T04:19:37.357Z,26.31
2022-08-17T04:20:08.828Z,26.30
2022-08-17T04:20:40.251Z,26.31
2022-08-17T04:21:11.685Z,26.30
2022-08-17T04:21:43.124Z,26.30
2022-08-17T04:22:32.707Z,26.30
2022-08-17T04:23:05.477Z,26.29
2022-08-17T04:23:36.924Z,26.28
2022-08-17T04:24:08.347Z,26.29
2022-08-17T04:24:39.786Z,26.28
2022-08-17T04:25:11.393Z,26.28
2022-08-17T04:25:42.815Z,26.28
2022-08-17T04:26:52.509Z,26.29
2022-08-17T04:27:05.661Z,26.27
2022-08-17T04:27:37.094Z,26.27
2022-08-17T04:28:16.146Z,26.27
2022-08-17T04:28:47.846Z,26.26
2022-08-17T04:29:19.277Z,26.27
2022-08-17T04:29:55.494Z,26.26
2022-08-17T04:30:27.189Z,26.26
2022-08-17T04:30:58.624Z,26.25
2022-08-17T04:31:30.064Z,26.26
2022-08-17T04:32:01.507Z,26.25
2022-08-17T04:33:03.495Z,26.25
2022-08-17T04:33:24.342Z,26.25
2022-08-17T04:33:55.777Z,26.25
2022-08-17T04:34:27.204Z,26.24
2022-08-17T04:34:58.653Z,26.25
2022-08-17T04:35:30.118Z,26.24
2022-08-17T04:36:03.628Z,26.23
2022-08-17T04:36:35.078Z,26.25
2022-08-17T04:37:06.504Z,26.23
2022-08-17T04:37:37.947Z,26.24
2022-08-17T04:38:09.375Z,26.24
2022-08-17T04:38:40.804Z,26.24
2022-08-17T04:39:12.241Z,26.24
2022-08-17T04:39:43.810Z,26.24
2022-08-17T04:40:15.310Z,26.23
2022-08-17T04:40:46.843Z,26.22
2022-08-17T04:41:18.281Z,26.22
2022-08-17T04:41:49.712Z,26.22
2022-08-17T04:42:21.144Z,26.23
2022-08-17T04:42:52.582Z,26.22
2022-08-17T04:43:32.377Z,26.22
2022-08-17T04:44:03.805Z,26.22
2022-08-17T04:44:37.765Z,26.21
2022-08-17T04:45:09.510Z,26.21
2022-08-17T04:45:40.977Z,26.21
2022-08-17T04:46:27.282Z,26.21
2022-08-17T04:46:58.707Z,26.21
2022-08-17T04:47:30.134Z,26.21
2022-08-17T04:48:01.593Z,26.20
2022-08-17T04:48:36.063Z,26.21
2022-08-17T04:49:08.600Z,26.21
2022-08-17T04:49:40.032Z,26.21
2022-08-17T04:50:11.460Z,26.20
2022-08-17T04:50:42.893Z,26.20
2022-08-17T04:51:14.452Z,26.19
2022-08-17T04:51:54.742Z,26.20
2022-08-17T04:52:42.631Z,26.20
2022-08-17T04:53:15.012Z,26.20
2022-08-17T04:53:46.436Z,26.19
2022-08-17T04:54:25.649Z,26.19
2022-08-17T04:54:57.168Z,26.18
2022-08-17T04:55:28.601Z,26.19
2022-08-17T04:56:00.047Z,26.18
2022-08-17T04:56:31.587Z,26.17
2022-08-17T04:57:03.015Z,26.17
2022-08-17T04:57:34.449Z,26.18
2022-08-17T04:58:10.991Z,26.17
2022-08-17T04:58:42.417Z,26.17
2022-08-17T04:59:13.849Z,26.17
2022-08-17T04:59:45.279Z,26.16
2022-08-17T05:00:16.700Z,26.16
2022-08-17T05:00:48.160Z,26.16
2022-08-17T05:01:23.563Z,26.16
2022-08-17T05:01:55.885Z,26.15
2022-08-17T05:02:27.333Z,26.15
2022-08-17T05:02:58.760Z,26.16
2022-08-17T05:03:30.193Z,26.15
2022-08-17T05:04:02.396Z,26.15
2022-08-17T05:04:53.032Z,26.14
2022-08-17T05:05:26.808Z,26.14
2022-08-17T05:05:58.461Z,26.15
2022-08-17T05:06:29.899Z,26.14
2022-08-17T05:07:01.440Z,26.14
2022-08-17T05:07:32.880Z,26.14
2022-08-17T05:08:04.312Z,26.13
2022-08-17T05:08:36.736Z,26.14
2022-08-17T05:09:08.170Z,26.13
2022-08-17T05:09:39.596Z,26.13
2022-08-17T05:10:11.029Z,26.12
2022-08-17T05:10:45.512Z,26.13
2022-08-17T05:11:17.193Z,26.12
2022-08-17T05:11:48.620Z,26.12
2022-08-17T05:12:20.114Z,26.12
2022-08-17T05:12:51.702Z,26.13
2022-08-17T05:13:23.245Z,26.13
2022-08-17T05:13:54.677Z,26.13
2022-08-17T05:14:33.472Z,26.13
2022-08-17T05:15:05.373Z,26.12
2022-08-17T05:15:36.792Z,26.13
2022-08-17T05:16:08.224Z,26.12
2022-08-17T05:16:39.643Z,26.13
2022-08-17T05:17:11.278Z,26.13
2022-08-17T05:17:43.071Z,26.12
2022-08-17T05:18:14.503Z,26.13
2022-08-17T05:18:45.936Z,26.13
2022-08-17T05:19:17.360Z,26.12
2022-08-17T05:19:51.850Z,26.11
2022-08-17T05:20:23.563Z,26.11
2022-08-17T05:20:54.996Z,26.12
2022-08-17T05:21:26.431Z,26.12
2022-08-17T05:21:57.870Z,26.12
2022-08-17T05:22:29.292Z,26.12
2022-08-17T05:23:00.819Z,26.11
2022-08-17T05:23:42.231Z,26.12
2022-08-17T05:24:38.180Z,26.11
2022-08-17T05:25:06.119Z,26.10
2022-08-17T05:25:38.132Z,26.11
2022-08-17T05:26:10.352Z,26.10
2022-08-17T05:26:51.859Z,26.10
2022-08-17T05:27:23.818Z,26.10
2022-08-17T05:27:55.289Z,26.10
2022-08-17T05:28:27.942Z,26.10
2022-08-17T05:29:02.819Z,26.10
2022-08-17T05:29:35.255Z,26.10
2022-08-17T05:30:07.158Z,26.10
2022-08-17T05:30:38.588Z,26.10
2022-08-17T05:31:10.017Z,26.11
2022-08-17T05:31:41.447Z,26.10
2022-08-17T05:32:38.088Z,26.09
2022-08-17T05:33:04.354Z,26.09
2022-08-17T05:33:35.908Z,26.09
2022-08-17T05:34:07.342Z,26.09
2022-08-17T05:34:38.767Z,26.09
2022-08-17T05:35:10.195Z,26.09
2022-08-17T05:35:41.621Z,26.09
2022-08-17T05:36:41.962Z,26.10
2022-08-17T05:37:04.461Z,26.09
2022-08-17T05:37:35.888Z,26.09
2022-08-17T05:38:07.322Z,26.08
2022-08-17T05:38:38.805Z,26.08
2022-08-17T05:39:10.725Z,26.08
2022-08-17T05:39:48.219Z,26.09
2022-08-17T05:40:19.681Z,26.08
2022-08-17T05:40:51.117Z,26.09
2022-08-17T05:41:22.552Z,26.09
2022-08-17T05:41:53.983Z,26.09
2022-08-17T05:42:25.412Z,26.08
2022-08-17T05:42:56.841Z,26.09
2022-08-17T05:43:28.259Z,26.09
2022-08-17T05:43:59.737Z,26.09
2022-08-17T05:44:36.873Z,26.10
2022-08-17T05:45:08.317Z,26.09
2022-08-17T05:45:54.164Z,26.09
2022-08-17T05:46:27.417Z,26.08
2022-08-17T05:46:58.850Z,26.08
2022-08-17T05:47:30.293Z,26.07
2022-08-17T05:48:01.724Z,26.08
2022-08-17T05:48:35.642Z,26.08
2022-08-17T05:49:11.746Z,26.08
2022-08-17T05:49:43.181Z,26.08
2022-08-17T05:50:18.359Z,26.06
2022-08-17T05:50:53.570Z,26.07
2022-08-17T05:51:25.004Z,26.07
2022-08-17T05:51:56.441Z,26.07
2022-08-17T05:52:27.880Z,26.07
2022-08-17T05:52:59.308Z,26.05
2022-08-17T05:53:30.745Z,26.07
2022-08-17T05:54:06.633Z,26.06
2022-08-17T05:54:38.451Z,26.06
2022-08-17T05:55:10.207Z,26.05
2022-08-17T05:55:41.676Z,26.07
2022-08-17T05:56:22.716Z,26.05
2022-08-17T05:57:01.327Z,26.04
2022-08-17T05:57:32.800Z,26.05
2022-08-17T05:58:04.686Z,26.07
2022-08-17T05:58:36.116Z,26.05
2022-08-17T05:59:07.549Z,26.05
2022-08-17T05:59:38.986Z,26.06
2022-08-17T06:00:10.477Z,26.05
2022-08-17T06:00:42.304Z,26.04
2022-08-17T06:01:13.926Z,26.05
2022-08-17T06:01:45.495Z,26.04
2022-08-17T06:02:16.924Z,26.05
2022-08-17T06:02:48.360Z,26.05
2022-08-17T06:03:19.803Z,26.05
2022-08-17T06:03:51.233Z,26.04
2022-08-17T06:04:22.666Z,26.04
2022-08-17T06:04:54.106Z,26.04
2022-08-17T06:05:25.585Z,26.04
2022-08-17T06:05:57.035Z,26.04
2022-08-17T06:06:31.307Z,26.04
2022-08-17T06:07:03.060Z,26.04
2022-08-17T06:07:34.499Z,26.04
2022-08-17T06:08:05.927Z,26.04
2022-08-17T06:08:37.357Z,26.04
2022-08-17T06:09:08.793Z,26.03
2022-08-17T06:09:40.252Z,26.04
2022-08-17T06:10:11.692Z,26.04
2022-08-17T06:10:43.355Z,26.04
2022-08-17T06:11:14.981Z,26.03
2022-08-17T06:11:46.731Z,26.03
2022-08-17T06:12:24.809Z,26.03
2022-08-17T06:12:56.253Z,26.03
2022-08-17T06:13:27.680Z,26.01
2022-08-17T06:13:59.117Z,26.03
2022-08-17T06:14:30.590Z,26.03
2022-08-17T06:15:02.025Z,26.01
2022-08-17T06:15:33.457Z,26.02
2022-08-17T06:16:32.842Z,26.01
2022-08-17T06:16:57.002Z,26.02
2022-08-17T06:17:28.441Z,26.03
2022-08-17T06:17:59.888Z,26.02
2022-08-17T06:18:31.319Z,26.02
2022-08-17T06:19:02.752Z,26.03
2022-08-17T06:19:34.177Z,26.05
2022-08-17T06:20:05.612Z,26.04
2022-08-17T06:20:38.754Z,26.04
2022-08-17T06:21:10.340Z,26.05
2022-08-17T06:21:41.760Z,26.06
2022-08-17T06:22:13.240Z,26.04
2022-08-17T06:22:44.670Z,26.07
2022-08-17T06:23:16.088Z,26.07
2022-08-17T06:23:47.515Z,26.07
2022-08-17T06:24:18.944Z,26.07
2022-08-17T06:24:50.377Z,26.07
2022-08-17T06:25:21.809Z,26.08
2022-08-17T06:25:53.278Z,26.07
2022-08-17T06:26:30.298Z,26.09
2022-08-17T06:27:11.240Z,26.09
2022-08-17T06:27:42.677Z,26.09
2022-08-17T06:28:14.197Z,26.09
2022-08-17T06:28:45.649Z,26.10
2022-08-17T06:29:18.647Z,26.10
2022-08-17T06:29:50.440Z,26.10
2022-08-17T06:30:21.878Z,26.10
2022-08-17T06:30:59.467Z,26.11
2022-08-17T06:31:32.493Z,26.12
2022-08-17T06:32:03.942Z,26.13
2022-08-17T06:32:35.384Z,26.13
2022-08-17T06:33:06.818Z,26.13
2022-08-17T06:33:38.254Z,26.14
2022-08-17T06:34:09.698Z,26.15
2022-08-17T06:34:41.129Z,26.17
2022-08-17T06:35:12.568Z,26.15
2022-08-17T06:35:43.992Z,26.17
2022-08-17T06:36:16.009Z,26.16
2022-08-17T06:36:47.784Z,26.18
2022-08-17T06:37:19.220Z,26.19
2022-08-17T06:37:50.658Z,26.20
2022-08-17T06:38:38.327Z,26.20
2022-08-17T06:39:10.176Z,26.21
2022-08-17T06:39:41.705Z,26.22
2022-08-17T06:40:13.296Z,26.23
2022-08-17T06:40:44.777Z,26.23
2022-08-17T06:41:16.487Z,26.23
2022-08-17T06:41:48.007Z,26.24
2022-08-17T06:43:04.010Z,26.25
2022-08-17T06:43:10.980Z,26.26
2022-08-17T06:43:46.210Z,26.26
2022-08-17T06:44:43.615Z,26.29
2022-08-17T06:45:10.845Z,26.28
2022-08-17T06:45:42.268Z,26.31
2022-08-17T06:46:13.694Z,26.31
2022-08-17T06:46:45.172Z,26.31
2022-08-17T06:47:28.717Z,26.32
2022-08-17T06:48:00.623Z,26.33
2022-08-17T06:48:32.062Z,26.33
2022-08-17T06:49:03.483Z,26.34
2022-08-17T06:49:34.947Z,26.36
2022-08-17T06:50:06.378Z,26.36
2022-08-17T06:50:37.809Z,26.36
2022-08-17T06:51:09.241Z,26.37
2022-08-17T06:51:40.675Z,26.38
2022-08-17T06:52:12.096Z,26.38
2022-08-17T06:53:03.531Z,26.39
2022-08-17T06:53:34.974Z,26.40
2022-08-17T06:54:06.399Z,26.41
2022-08-17T06:54:37.838Z,26.42
2022-08-17T06:55:09.284Z,26.42
2022-08-17T06:55:49.626Z,26.44
2022-08-17T06:56:21.089Z,26.45
2022-08-17T06:56:52.540Z,26.46
2022-08-17T06:57:25.968Z,26.46
2022-08-17T06:57:57.644Z,26.46
2022-08-17T06:58:29.819Z,26.48
2022-08-17T06:59:01.453Z,26.48
2022-08-17T06:59:47.180Z,26.50
2022-08-17T07:00:24.439Z,26.50
2022-08-17T07:00:58.733Z,26.51
2022-08-17T07:01:30.463Z,26.51
2022-08-17T07:02:01.962Z,26.52
2022-08-17T07:02:51.268Z,26.53
2022-08-17T07:03:24.873Z,26.54
2022-08-17T07:03:56.307Z,26.55
2022-08-17T07:04:27.737Z,26.55
2022-08-17T07:04:59.189Z,26.56
2022-08-17T07:05:30.682Z,26.58
2022-08-17T07:06:02.149Z,26.58
2022-08-17T07:06:33.584Z,26.59
2022-08-17T07:07:09.546Z,26.59
2022-08-17T07:07:40.979Z,26.60
2022-08-17T07:08:12.635Z,26.60